sensor_id;sensor_type;location;lat;lon;timestamp;pressure;altitude;pressure_sealevel;temperature;humidity
28289;BME280;15558;50.874;6.964;2022-08-01T00:01:12;101157.66;;;26.86;51.15
28289;BME280;15558;50.874;6.964;2022-08-01T00:03:38;101165.09;;;26.90;51.23
28289;BME280;15558;50.874;6.964;2022-08-01T00:06:04;101163.84;;;26.88;51.13
28289;BME280;15558;50.874;6.964;2022-08-01T00:08:30;101154.78;;;26.89;51.05
28289;BME280;15558;50.874;6.964;2022-08-01T00:10:56;101160.53;;;26.86;51.42
28289;BME280;15558;50.874;6.964;2022-08-01T00:13:22;101158.47;;;26.86;51.49
28289;BME280;15558;50.874;6.964;2022-08-01T00:15:48;101164.25;;;26.86;51.54
28289;BME280;15558;50.874;6.964;2022-08-01T00:18:14;101156.81;;;26.85;51.41
28289;BME280;15558;50.874;6.964;2022-08-01T00:20:40;101166.69;;;26.84;51.82
28289;BME280;15558;50.874;6.964;2022-08-01T00:23:06;101158.84;;;26.82;51.46
28289;BME280;15558;50.874;6.964;2022-08-01T00:25:32;101156.78;;;26.82;51.74
28289;BME280;15558;50.874;6.964;2022-08-01T00:27:58;101162.94;;;26.81;51.80
28289;BME280;15558;50.874;6.964;2022-08-01T00:30:24;101164.09;;;26.76;52.05
28289;BME280;15558;50.874;6.964;2022-08-01T00:32:49;101157.53;;;26.76;51.99
28289;BME280;15558;50.874;6.964;2022-08-01T00:35:15;101158.31;;;26.73;51.97
28289;BME280;15558;50.874;6.964;2022-08-01T00:37:42;101163.25;;;26.72;52.33
28289;BME280;15558;50.874;6.964;2022-08-01T00:40:08;101151.66;;;26.65;52.40
28289;BME280;15558;50.874;6.964;2022-08-01T00:42:34;101158.25;;;26.66;52.60
28289;BME280;15558;50.874;6.964;2022-08-01T00:45:00;101161.94;;;26.66;52.84
28289;BME280;15558;50.874;6.964;2022-08-01T00:47:26;101165.59;;;26.60;52.62
28289;BME280;15558;50.874;6.964;2022-08-01T00:49:52;101172.53;;;26.55;53.05
28289;BME280;15558;50.874;6.964;2022-08-01T00:52:18;101162.66;;;26.56;53.67
28289;BME280;15558;50.874;6.964;2022-08-01T00:54:45;101161.38;;;26.50;54.22
28289;BME280;15558;50.874;6.964;2022-08-01T00:57:11;101166.34;;;26.53;54.92
28289;BME280;15558;50.874;6.964;2022-08-01T00:59:38;101165.53;;;26.53;53.98
28289;BME280;15558;50.874;6.964;2022-08-01T01:02:04;101172.94;;;26.54;54.25
28289;BME280;15558;50.874;6.964;2022-08-01T01:04:30;101168.75;;;26.48;54.18
28289;BME280;15558;50.874;6.964;2022-08-01T01:07:03;101166.25;;;26.43;54.28
28289;BME280;15558;50.874;6.964;2022-08-01T01:09:57;101176.88;;;26.39;54.64
28289;BME280;15558;50.874;6.964;2022-08-01T01:12:44;101178.91;;;26.35;55.79
28289;BME280;15558;50.874;6.964;2022-08-01T01:15:34;101168.06;;;26.25;56.80
28289;BME280;15558;50.874;6.964;2022-08-01T01:18:07;101176.63;;;26.18;56.55
28289;BME280;15558;50.874;6.964;2022-08-01T01:20:42;101181.56;;;26.18;56.00
28289;BME280;15558;50.874;6.964;2022-08-01T01:29:23;101180.78;;;26.21;56.14
28289;BME280;15558;50.874;6.964;2022-08-01T01:31:57;101178.72;;;26.21;56.31
28289;BME280;15558;50.874;6.964;2022-08-01T01:34:27;101180.81;;;26.24;56.02
28289;BME280;15558;50.874;6.964;2022-08-01T01:36:54;101173.38;;;26.20;56.04
28289;BME280;15558;50.874;6.964;2022-08-01T01:39:22;101181.66;;;26.25;56.13
28289;BME280;15558;50.874;6.964;2022-08-01T01:41:51;101186.53;;;26.21;56.09
28289;BME280;15558;50.874;6.964;2022-08-01T01:44:19;101182.41;;;26.18;56.37
28289;BME280;15558;50.874;6.964;2022-08-01T01:46:45;101179.97;;;26.20;56.25
28289;BME280;15558;50.874;6.964;2022-08-01T01:49:13;101195.50;;;26.16;56.24
28289;BME280;15558;50.874;6.964;2022-08-01T01:51:41;101190.94;;;26.15;56.45
28289;BME280;15558;50.874;6.964;2022-08-01T01:54:09;101186.44;;;26.14;56.29
28289;BME280;15558;50.874;6.964;2022-08-01T01:56:36;101187.59;;;26.09;56.46
28289;BME280;15558;50.874;6.964;2022-08-01T01:59:18;101184.72;;;26.09;56.88
28289;BME280;15558;50.874;6.964;2022-08-01T02:01:45;101187.94;;;26.05;56.67
28289;BME280;15558;50.874;6.964;2022-08-01T02:04:12;101179.31;;;26.05;56.57
28289;BME280;15558;50.874;6.964;2022-08-01T02:06:40;101182.72;;;26.13;56.48
28289;BME280;15558;50.874;6.964;2022-08-01T02:09:06;101179.59;;;25.96;57.05
28289;BME280;15558;50.874;6.964;2022-08-01T02:11:36;101178.78;;;25.96;57.17
28289;BME280;15558;50.874;6.964;2022-08-01T02:14:04;101182.47;;;25.93;57.17
28289;BME280;15558;50.874;6.964;2022-08-01T02:16:35;101177.91;;;25.92;56.98
28289;BME280;15558;50.874;6.964;2022-08-01T02:21:51;101172.22;;;25.95;57.38
28289;BME280;15558;50.874;6.964;2022-08-01T02:24:35;101176.34;;;25.98;57.04
28289;BME280;15558;50.874;6.964;2022-08-01T02:27:07;101171.38;;;25.95;57.13
28289;BME280;15558;50.874;6.964;2022-08-01T02:29:49;101171.34;;;25.91;57.27
28289;BME280;15558;50.874;6.964;2022-08-01T02:32:25;101175.47;;;25.94;57.40
28289;BME280;15558;50.874;6.964;2022-08-01T02:34:55;101176.22;;;25.87;57.60
28289;BME280;15558;50.874;6.964;2022-08-01T02:37:23;101175.31;;;25.83;57.58
28289;BME280;15558;50.874;6.964;2022-08-01T02:39:54;101168.47;;;25.91;57.66
28289;BME280;15558;50.874;6.964;2022-08-01T02:42:22;101171.69;;;25.86;57.54
28289;BME280;15558;50.874;6.964;2022-08-01T02:44:49;101170.91;;;25.89;57.27
28289;BME280;15558;50.874;6.964;2022-08-01T02:47:18;101173.78;;;25.89;57.30
28289;BME280;15558;50.874;6.964;2022-08-01T02:49:47;101175.03;;;25.92;57.51
28289;BME280;15558;50.874;6.964;2022-08-01T02:52:17;101172.00;;;25.81;57.79
28289;BME280;15558;50.874;6.964;2022-08-01T02:54:45;101167.88;;;25.79;57.53
28289;BME280;15558;50.874;6.964;2022-08-01T02:57:14;101173.28;;;25.84;57.95
28289;BME280;15558;50.874;6.964;2022-08-01T02:59:42;101162.91;;;25.76;57.82
28289;BME280;15558;50.874;6.964;2022-08-01T03:02:10;101162.91;;;25.76;57.78
28289;BME280;15558;50.874;6.964;2022-08-01T03:04:39;101166.13;;;25.71;58.28
28289;BME280;15558;50.874;6.964;2022-08-01T03:07:07;101168.53;;;25.66;58.23
28289;BME280;15558;50.874;6.964;2022-08-01T03:09:40;101169.72;;;25.65;58.19
28289;BME280;15558;50.874;6.964;2022-08-01T03:12:14;101172.69;;;25.72;58.21
28289;BME280;15558;50.874;6.964;2022-08-01T03:14:42;101181.28;;;25.68;58.22
28289;BME280;15558;50.874;6.964;2022-08-01T03:17:09;101185.78;;;25.66;58.25
28289;BME280;15558;50.874;6.964;2022-08-01T03:19:36;101177.56;;;25.68;58.38
28289;BME280;15558;50.874;6.964;2022-08-01T03:22:06;101173.47;;;25.69;58.27
28289;BME280;15558;50.874;6.964;2022-08-01T03:24:34;101173.03;;;25.67;58.44
28289;BME280;15558;50.874;6.964;2022-08-01T03:27:02;101182.91;;;25.66;58.65
28289;BME280;15558;50.874;6.964;2022-08-01T03:29:29;101177.56;;;25.68;58.34
28289;BME280;15558;50.874;6.964;2022-08-01T03:31:58;101179.22;;;25.69;58.64
28289;BME280;15558;50.874;6.964;2022-08-01T03:34:25;101184.91;;;25.62;58.89
28289;BME280;15558;50.874;6.964;2022-08-01T03:37:05;101183.16;;;25.57;58.56
28289;BME280;15558;50.874;6.964;2022-08-01T03:39:34;101183.66;;;25.63;58.55
28289;BME280;15558;50.874;6.964;2022-08-01T03:42:06;101184.03;;;25.61;58.53
28289;BME280;15558;50.874;6.964;2022-08-01T03:44:35;101189.84;;;25.65;58.65
28289;BME280;15558;50.874;6.964;2022-08-01T03:47:07;101182.78;;;25.59;58.92
28289;BME280;15558;50.874;6.964;2022-08-01T03:49:43;101181.03;;;25.54;59.11
28289;BME280;15558;50.874;6.964;2022-08-01T03:52:10;101183.84;;;25.51;59.22
28289;BME280;15558;50.874;6.964;2022-08-01T03:54:41;101176.53;;;25.53;58.64
28289;BME280;15558;50.874;6.964;2022-08-01T03:57:08;101178.09;;;25.51;59.12
28289;BME280;15558;50.874;6.964;2022-08-01T03:59:35;101173.53;;;25.46;59.29
28289;BME280;15558;50.874;6.964;2022-08-01T04:02:03;101180.94;;;25.47;58.97
28289;BME280;15558;50.874;6.964;2022-08-01T04:04:30;101183.91;;;25.54;59.21
28289;BME280;15558;50.874;6.964;2022-08-01T04:06:56;101188.09;;;25.57;59.05
28289;BME280;15558;50.874;6.964;2022-08-01T04:09:22;101188.03;;;25.53;58.99
28289;BME280;15558;50.874;6.964;2022-08-01T04:11:48;101185.53;;;25.52;59.70
28289;BME280;15558;50.874;6.964;2022-08-01T04:14:14;101182.22;;;25.50;59.36
28289;BME280;15558;50.874;6.964;2022-08-01T04:16:40;101185.03;;;25.46;59.60
28289;BME280;15558;50.874;6.964;2022-08-01T04:19:06;101175.59;;;25.46;59.57
28289;BME280;15558;50.874;6.964;2022-08-01T04:21:34;101180.53;;;25.49;59.28
28289;BME280;15558;50.874;6.964;2022-08-01T04:24:05;101180.09;;;25.47;59.30
28289;BME280;15558;50.874;6.964;2022-08-01T04:26:32;101178.00;;;25.44;59.50
28289;BME280;15558;50.874;6.964;2022-08-01T04:29:02;101187.16;;;25.49;59.57
28289;BME280;15558;50.874;6.964;2022-08-01T04:31:28;101195.34;;;25.51;59.51
28289;BME280;15558;50.874;6.964;2022-08-01T04:33:55;101199.47;;;25.50;59.78
28289;BME280;15558;50.874;6.964;2022-08-01T04:36:23;101200.72;;;25.52;60.02
28289;BME280;15558;50.874;6.964;2022-08-01T04:38:53;101196.22;;;25.51;59.92
28289;BME280;15558;50.874;6.964;2022-08-01T04:41:20;101203.97;;;25.51;59.88
28289;BME280;15558;50.874;6.964;2022-08-01T04:43:46;101204.41;;;25.49;59.71
28289;BME280;15558;50.874;6.964;2022-08-01T04:46:13;101202.03;;;25.55;60.30
28289;BME280;15558;50.874;6.964;2022-08-01T04:48:40;101208.97;;;25.54;59.83
28289;BME280;15558;50.874;6.964;2022-08-01T04:51:16;101206.09;;;25.54;60.18
28289;BME280;15558;50.874;6.964;2022-08-01T04:53:45;101214.72;;;25.54;59.91
28289;BME280;15558;50.874;6.964;2022-08-01T04:56:12;101215.94;;;25.53;60.24
28289;BME280;15558;50.874;6.964;2022-08-01T04:58:41;101222.41;;;25.46;60.12
28289;BME280;15558;50.874;6.964;2022-08-01T05:01:08;101223.22;;;25.47;59.97
28289;BME280;15558;50.874;6.964;2022-08-01T05:03:35;101214.94;;;25.42;60.35
28289;BME280;15558;50.874;6.964;2022-08-01T05:06:00;101226.50;;;25.45;60.35
28289;BME280;15558;50.874;6.964;2022-08-01T05:08:26;101218.72;;;25.46;60.40
28289;BME280;15558;50.874;6.964;2022-08-01T05:10:52;101218.19;;;25.40;60.21
28289;BME280;15558;50.874;6.964;2022-08-01T05:13:19;101231.75;;;25.40;60.34
28289;BME280;15558;50.874;6.964;2022-08-01T05:15:45;101223.19;;;25.43;60.41
28289;BME280;15558;50.874;6.964;2022-08-01T05:18:11;101223.56;;;25.42;60.68
28289;BME280;15558;50.874;6.964;2022-08-01T05:20:37;101219.09;;;25.44;60.48
28289;BME280;15558;50.874;6.964;2022-08-01T05:23:06;101214.28;;;25.52;60.56
28289;BME280;15558;50.874;6.964;2022-08-01T05:25:32;101228.66;;;25.52;60.15
28289;BME280;15558;50.874;6.964;2022-08-01T05:27:59;101221.69;;;25.53;60.23
28289;BME280;15558;50.874;6.964;2022-08-01T05:30:25;101234.72;;;25.47;60.50
28289;BME280;15558;50.874;6.964;2022-08-01T05:32:51;101231.91;;;25.50;60.61
28289;BME280;15558;50.874;6.964;2022-08-01T05:35:17;101236.03;;;25.49;60.02
28289;BME280;15558;50.874;6.964;2022-08-01T05:37:43;101237.59;;;25.47;60.73
28289;BME280;15558;50.874;6.964;2022-08-01T05:40:09;101232.28;;;25.49;60.84
28289;BME280;15558;50.874;6.964;2022-08-01T05:42:35;101233.97;;;25.50;60.55
28289;BME280;15558;50.874;6.964;2022-08-01T05:45:01;101236.22;;;25.60;60.30
28289;BME280;15558;50.874;6.964;2022-08-01T05:47:27;101235.78;;;25.58;60.63
28289;BME280;15558;50.874;6.964;2022-08-01T05:49:53;101238.75;;;25.65;60.89
28289;BME280;15558;50.874;6.964;2022-08-01T05:52:19;101238.38;;;25.66;60.91
28289;BME280;15558;50.874;6.964;2022-08-01T05:54:45;101240.44;;;25.66;60.03
28289;BME280;15558;50.874;6.964;2022-08-01T05:57:11;101239.53;;;25.62;60.57
28289;BME280;15558;50.874;6.964;2022-08-01T05:59:37;101254.81;;;25.66;60.49
28289;BME280;15558;50.874;6.964;2022-08-01T06:02:03;101247.00;;;25.66;60.68
28289;BME280;15558;50.874;6.964;2022-08-01T06:04:29;101248.72;;;25.71;59.76
28289;BME280;15558;50.874;6.964;2022-08-01T06:06:55;101252.78;;;25.70;59.89
28289;BME280;15558;50.874;6.964;2022-08-01T06:09:21;101237.25;;;25.74;60.32
28289;BME280;15558;50.874;6.964;2022-08-01T06:11:47;101244.22;;;25.73;60.64
28289;BME280;15558;50.874;6.964;2022-08-01T06:14:13;101243.34;;;25.69;60.18
28289;BME280;15558;50.874;6.964;2022-08-01T06:16:38;101242.59;;;25.75;60.82
28289;BME280;15558;50.874;6.964;2022-08-01T06:19:04;101240.16;;;25.77;60.48
28289;BME280;15558;50.874;6.964;2022-08-01T06:21:30;101236.19;;;25.85;60.35
28289;BME280;15558;50.874;6.964;2022-08-01T06:23:56;101243.75;;;25.97;60.49
28289;BME280;15558;50.874;6.964;2022-08-01T06:26:22;101247.16;;;26.06;60.46
28289;BME280;15558;50.874;6.964;2022-08-01T06:28:48;101243.06;;;26.07;60.08
28289;BME280;15558;50.874;6.964;2022-08-01T06:31:14;101248.13;;;26.16;59.85
28289;BME280;15558;50.874;6.964;2022-08-01T06:33:41;101246.66;;;26.26;59.83
28289;BME280;15558;50.874;6.964;2022-08-01T06:36:07;101237.16;;;26.22;59.66
28289;BME280;15558;50.874;6.964;2022-08-01T06:41:03;101247.81;;;26.21;59.52
28289;BME280;15558;50.874;6.964;2022-08-01T06:43:29;101240.91;;;26.26;58.97
28289;BME280;15558;50.874;6.964;2022-08-01T06:45:55;101241.75;;;26.30;59.42
28289;BME280;15558;50.874;6.964;2022-08-01T06:48:20;101243.47;;;26.34;59.49
28289;BME280;15558;50.874;6.964;2022-08-01T06:50:46;101237.28;;;26.32;58.95
28289;BME280;15558;50.874;6.964;2022-08-01T06:53:12;101239.75;;;26.34;59.17
28289;BME280;15558;50.874;6.964;2022-08-01T06:55:38;101247.63;;;26.37;59.21
28289;BME280;15558;50.874;6.964;2022-08-01T06:58:04;101243.50;;;26.38;59.20
28289;BME280;15558;50.874;6.964;2022-08-01T07:00:30;101245.13;;;26.35;59.21
28289;BME280;15558;50.874;6.964;2022-08-01T07:02:57;101242.59;;;26.30;58.65
28289;BME280;15558;50.874;6.964;2022-08-01T07:05:24;101243.41;;;26.31;58.92
28289;BME280;15558;50.874;6.964;2022-08-01T07:07:53;101244.63;;;26.30;59.09
28289;BME280;15558;50.874;6.964;2022-08-01T07:10:19;101246.28;;;26.31;58.86
28289;BME280;15558;50.874;6.964;2022-08-01T07:12:45;101250.38;;;26.30;58.90
28289;BME280;15558;50.874;6.964;2022-08-01T07:15:11;101250.06;;;26.35;58.54
28289;BME280;15558;50.874;6.964;2022-08-01T07:17:39;101249.38;;;26.45;58.00
28289;BME280;15558;50.874;6.964;2022-08-01T07:20:10;101252.25;;;26.45;57.81
28289;BME280;15558;50.874;6.964;2022-08-01T07:22:37;101246.03;;;26.43;57.34
28289;BME280;15558;50.874;6.964;2022-08-01T07:25:04;101242.31;;;26.42;57.27
28289;BME280;15558;50.874;6.964;2022-08-01T07:27:31;101254.25;;;26.41;57.57
28289;BME280;15558;50.874;6.964;2022-08-01T07:29:57;101258.38;;;26.43;57.48
28289;BME280;15558;50.874;6.964;2022-08-01T07:32:23;101253.41;;;26.40;57.45
28289;BME280;15558;50.874;6.964;2022-08-01T07:34:49;101257.06;;;26.37;57.66
28289;BME280;15558;50.874;6.964;2022-08-01T07:37:15;101251.66;;;26.32;57.01
28289;BME280;15558;50.874;6.964;2022-08-01T07:39:41;101261.44;;;26.24;57.45
28289;BME280;15558;50.874;6.964;2022-08-01T07:42:07;101258.50;;;26.21;57.48
28289;BME280;15558;50.874;6.964;2022-08-01T07:44:33;101264.63;;;26.19;57.62
28289;BME280;15558;50.874;6.964;2022-08-01T07:46:59;101272.50;;;26.22;57.68
28289;BME280;15558;50.874;6.964;2022-08-01T07:49:25;101256.56;;;26.28;58.15
28289;BME280;15558;50.874;6.964;2022-08-01T07:51:51;101259.06;;;26.33;57.92
28289;BME280;15558;50.874;6.964;2022-08-01T07:54:17;101260.00;;;26.41;58.02
28289;BME280;15558;50.874;6.964;2022-08-01T07:56:43;101268.72;;;26.47;57.34
28289;BME280;15558;50.874;6.964;2022-08-01T07:59:09;101269.22;;;26.53;57.22
28289;BME280;15558;50.874;6.964;2022-08-01T08:01:34;101269.78;;;26.65;57.04
28289;BME280;15558;50.874;6.964;2022-08-01T08:04:00;101264.88;;;26.69;56.93
28289;BME280;15558;50.874;6.964;2022-08-01T08:06:26;101266.41;;;26.96;56.99
28289;BME280;15558;50.874;6.964;2022-08-01T08:08:52;101250.28;;;27.31;56.03
28289;BME280;15558;50.874;6.964;2022-08-01T08:11:19;101249.78;;;27.65;55.17
28289;BME280;15558;50.874;6.964;2022-08-01T08:13:45;101253.97;;;27.78;53.63
28289;BME280;15558;50.874;6.964;2022-08-01T08:16:11;101253.56;;;27.76;53.24
28289;BME280;15558;50.874;6.964;2022-08-01T08:18:37;101252.38;;;27.84;53.33
28289;BME280;15558;50.874;6.964;2022-08-01T08:21:03;101263.88;;;27.77;53.60
28289;BME280;15558;50.874;6.964;2022-08-01T08:23:29;101262.59;;;27.74;53.97
28289;BME280;15558;50.874;6.964;2022-08-01T08:26:21;101263.69;;;27.52;53.99
28289;BME280;15558;50.874;6.964;2022-08-01T08:28:49;101262.03;;;27.52;54.24
28289;BME280;15558;50.874;6.964;2022-08-01T08:31:15;101267.34;;;27.46;54.30
28289;BME280;15558;50.874;6.964;2022-08-01T08:33:40;101270.66;;;27.48;53.77
28289;BME280;15558;50.874;6.964;2022-08-01T08:36:06;101276.78;;;27.40;54.11
28289;BME280;15558;50.874;6.964;2022-08-01T08:38:32;101271.75;;;27.37;54.50
28289;BME280;15558;50.874;6.964;2022-08-01T08:40:59;101263.78;;;27.63;53.85
28289;BME280;15558;50.874;6.964;2022-08-01T08:43:25;101268.81;;;27.76;53.46
28289;BME280;15558;50.874;6.964;2022-08-01T08:45:52;101274.72;;;27.93;52.78
28289;BME280;15558;50.874;6.964;2022-08-01T08:48:18;101277.59;;;27.93;52.54
28289;BME280;15558;50.874;6.964;2022-08-01T08:50:45;101279.28;;;27.98;52.16
28289;BME280;15558;50.874;6.964;2022-08-01T08:53:13;101283.03;;;28.05;52.18
28289;BME280;15558;50.874;6.964;2022-08-01T08:55:41;101273.88;;;27.93;52.36
28289;BME280;15558;50.874;6.964;2022-08-01T08:58:13;101277.81;;;27.68;52.46
28289;BME280;15558;50.874;6.964;2022-08-01T09:00:39;101283.97;;;27.63;52.92
28289;BME280;15558;50.874;6.964;2022-08-01T09:03:06;101279.38;;;27.55;52.94
28289;BME280;15558;50.874;6.964;2022-08-01T09:05:32;101278.50;;;27.51;53.38
28289;BME280;15558;50.874;6.964;2022-08-01T09:07:58;101284.75;;;27.60;53.59
28289;BME280;15558;50.874;6.964;2022-08-01T09:10:25;101284.44;;;27.72;52.82
28289;BME280;15558;50.874;6.964;2022-08-01T09:13:11;101285.34;;;27.79;52.60
28289;BME280;15558;50.874;6.964;2022-08-01T09:21:10;101286.97;;;27.80;53.44
28289;BME280;15558;50.874;6.964;2022-08-01T09:26:09;101283.31;;;27.87;52.38
28289;BME280;15558;50.874;6.964;2022-08-01T09:28:35;101284.41;;;27.68;52.71
28289;BME280;15558;50.874;6.964;2022-08-01T09:31:14;101294.78;;;27.76;52.83
28289;BME280;15558;50.874;6.964;2022-08-01T09:33:49;101288.66;;;27.81;52.67
28289;BME280;15558;50.874;6.964;2022-08-01T09:36:15;101297.75;;;27.87;52.63
28289;BME280;15558;50.874;6.964;2022-08-01T09:38:41;101294.94;;;27.97;52.71
28289;BME280;15558;50.874;6.964;2022-08-01T09:41:07;101291.34;;;28.10;51.92
28289;BME280;15558;50.874;6.964;2022-08-01T09:43:33;101286.00;;;28.12;51.76
28289;BME280;15558;50.874;6.964;2022-08-01T09:46:04;101281.44;;;28.08;52.07
28289;BME280;15558;50.874;6.964;2022-08-01T09:48:31;101280.59;;;28.07;52.08
28289;BME280;15558;50.874;6.964;2022-08-01T09:50:58;101294.69;;;28.19;52.30
28289;BME280;15558;50.874;6.964;2022-08-01T09:53:25;101286.03;;;28.19;51.64
28289;BME280;15558;50.874;6.964;2022-08-01T09:55:51;101290.56;;;28.20;51.04
28289;BME280;15558;50.874;6.964;2022-08-01T09:58:18;101284.94;;;28.48;49.93
28289;BME280;15558;50.874;6.964;2022-08-01T10:00:57;101296.56;;;28.61;49.92
28289;BME280;15558;50.874;6.964;2022-08-01T10:03:26;101294.16;;;28.70;49.37
28289;BME280;15558;50.874;6.964;2022-08-01T10:05:52;101292.44;;;28.59;49.99
28289;BME280;15558;50.874;6.964;2022-08-01T10:08:22;101291.56;;;28.55;50.32
28289;BME280;15558;50.874;6.964;2022-08-01T10:11:13;101283.81;;;28.73;50.21
28289;BME280;15558;50.874;6.964;2022-08-01T10:13:39;101289.19;;;28.71;49.57
28289;BME280;15558;50.874;6.964;2022-08-01T10:16:06;101282.16;;;28.75;49.53
28289;BME280;15558;50.874;6.964;2022-08-01T10:18:34;101280.94;;;28.80;48.79
28289;BME280;15558;50.874;6.964;2022-08-01T10:21:02;101280.53;;;28.74;49.28
28289;BME280;15558;50.874;6.964;2022-08-01T10:23:33;101273.09;;;28.73;49.98
28289;BME280;15558;50.874;6.964;2022-08-01T10:26:00;101272.66;;;28.71;48.58
28289;BME280;15558;50.874;6.964;2022-08-01T10:28:29;101270.25;;;28.97;48.82
28289;BME280;15558;50.874;6.964;2022-08-01T10:30:57;101270.34;;;29.22;47.49
28289;BME280;15558;50.874;6.964;2022-08-01T10:33:24;101273.22;;;29.15;46.79
28289;BME280;15558;50.874;6.964;2022-08-01T10:35:51;101272.81;;;29.30;46.30
28289;BME280;15558;50.874;6.964;2022-08-01T10:38:17;101262.09;;;29.55;46.25
28289;BME280;15558;50.874;6.964;2022-08-01T10:40:44;101265.00;;;29.75;46.56
28289;BME280;15558;50.874;6.964;2022-08-01T10:43:11;101268.66;;;29.90;45.82
28289;BME280;15558;50.874;6.964;2022-08-01T10:45:39;101262.88;;;29.79;45.91
28289;BME280;15558;50.874;6.964;2022-08-01T10:48:19;101262.09;;;29.72;45.10
28289;BME280;15558;50.874;6.964;2022-08-01T10:50:48;101267.47;;;29.80;44.84
28289;BME280;15558;50.874;6.964;2022-08-01T10:53:20;101255.41;;;29.99;45.30
28289;BME280;15558;50.874;6.964;2022-08-01T10:55:47;101253.75;;;30.05;44.49
28289;BME280;15558;50.874;6.964;2022-08-01T10:58:13;101261.59;;;30.15;44.13
28289;BME280;15558;50.874;6.964;2022-08-01T11:00:39;101264.50;;;30.25;43.90
28289;BME280;15558;50.874;6.964;2022-08-01T11:03:05;101257.44;;;30.16;43.80
28289;BME280;15558;50.874;6.964;2022-08-01T11:05:33;101256.69;;;29.95;43.98
28289;BME280;15558;50.874;6.964;2022-08-01T11:08:08;101268.69;;;29.66;44.80
28289;BME280;15558;50.874;6.964;2022-08-01T11:10:39;101265.78;;;29.38;45.72
28289;BME280;15558;50.874;6.964;2022-08-01T11:13:06;101269.50;;;29.25;45.90
28289;BME280;15558;50.874;6.964;2022-08-01T11:15:41;101272.81;;;29.20;46.78
28289;BME280;15558;50.874;6.964;2022-08-01T11:18:30;101268.22;;;29.08;46.99
28289;BME280;15558;50.874;6.964;2022-08-01T11:20:59;101274.81;;;29.12;47.16
28289;BME280;15558;50.874;6.964;2022-08-01T11:23:27;101261.66;;;29.35;45.48
28289;BME280;15558;50.874;6.964;2022-08-01T11:28:23;101251.28;;;30.00;44.53
28289;BME280;15558;50.874;6.964;2022-08-01T11:31:36;101252.53;;;29.85;43.58
28289;BME280;15558;50.874;6.964;2022-08-01T11:38:43;101246.66;;;30.16;43.63
28289;BME280;15558;50.874;6.964;2022-08-01T11:44:02;101241.47;;;30.75;41.24
28289;BME280;15558;50.874;6.964;2022-08-01T11:57:04;101237.53;;;31.09;41.15
28289;BME280;15558;50.874;6.964;2022-08-01T11:59:45;101243.66;;;31.22;40.59
28289;BME280;15558;50.874;6.964;2022-08-01T12:02:24;101245.03;;;31.04;40.68
28289;BME280;15558;50.874;6.964;2022-08-01T12:07:28;101245.34;;;30.41;41.83
28289;BME280;15558;50.874;6.964;2022-08-01T12:10:15;101251.59;;;30.33;42.34
28289;BME280;15558;50.874;6.964;2022-08-01T12:12:50;101250.00;;;30.25;41.90
28289;BME280;15558;50.874;6.964;2022-08-01T12:15:18;101246.69;;;30.13;42.35
28289;BME280;15558;50.874;6.964;2022-08-01T12:17:47;101244.63;;;30.13;42.27
28289;BME280;15558;50.874;6.964;2022-08-01T12:20:24;101247.94;;;30.29;42.22
28289;BME280;15558;50.874;6.964;2022-08-01T12:23:10;101238.28;;;30.56;41.71
28289;BME280;15558;50.874;6.964;2022-08-01T12:25:37;101250.63;;;30.71;40.67
28289;BME280;15558;50.874;6.964;2022-08-01T12:28:07;101244.34;;;30.82;40.57
28289;BME280;15558;50.874;6.964;2022-08-01T12:30:35;101235.69;;;30.72;40.23
28289;BME280;15558;50.874;6.964;2022-08-01T12:33:06;101240.66;;;30.75;39.49
28289;BME280;15558;50.874;6.964;2022-08-01T12:35:34;101244.34;;;30.89;39.40
28289;BME280;15558;50.874;6.964;2022-08-01T12:38:06;101242.72;;;30.81;39.37
28289;BME280;15558;50.874;6.964;2022-08-01T12:40:36;101240.25;;;30.76;39.06
28289;BME280;15558;50.874;6.964;2022-08-01T12:43:07;101246.16;;;30.52;39.85
28289;BME280;15558;50.874;6.964;2022-08-01T12:45:36;101250.81;;;30.29;40.66
28289;BME280;15558;50.874;6.964;2022-08-01T12:48:07;101238.84;;;30.10;40.97
28289;BME280;15558;50.874;6.964;2022-08-01T12:50:34;101247.16;;;30.04;40.83
28289;BME280;15558;50.874;6.964;2022-08-01T12:53:02;101245.06;;;30.02;41.18
28289;BME280;15558;50.874;6.964;2022-08-01T12:55:28;101246.31;;;29.94;41.67
28289;BME280;15558;50.874;6.964;2022-08-01T12:58:09;101250.44;;;30.00;41.38
28289;BME280;15558;50.874;6.964;2022-08-01T13:00:36;101250.41;;;30.10;40.98
28289;BME280;15558;50.874;6.964;2022-08-01T13:03:10;101242.13;;;30.15;40.74
28289;BME280;15558;50.874;6.964;2022-08-01T13:05:49;101247.13;;;30.11;40.67
28289;BME280;15558;50.874;6.964;2022-08-01T13:08:18;101243.78;;;30.16;40.53
28289;BME280;15558;50.874;6.964;2022-08-01T13:10:45;101247.56;;;30.03;41.17
28289;BME280;15558;50.874;6.964;2022-08-01T13:13:12;101249.19;;;30.07;40.95
28289;BME280;15558;50.874;6.964;2022-08-01T13:15:40;101242.13;;;30.08;40.58
28289;BME280;15558;50.874;6.964;2022-08-01T13:21:20;101241.34;;;30.04;40.56
28289;BME280;15558;50.874;6.964;2022-08-01T13:24:09;101251.28;;;29.90;41.09
28289;BME280;15558;50.874;6.964;2022-08-01T13:26:49;101241.41;;;29.84;41.28
28289;BME280;15558;50.874;6.964;2022-08-01T13:29:17;101238.50;;;29.84;41.27
28289;BME280;15558;50.874;6.964;2022-08-01T13:31:43;101242.63;;;29.69;41.26
28289;BME280;15558;50.874;6.964;2022-08-01T13:34:10;101236.44;;;29.81;40.69
28289;BME280;15558;50.874;6.964;2022-08-01T13:36:37;101245.53;;;29.76;41.14
28289;BME280;15558;50.874;6.964;2022-08-01T13:39:04;101240.59;;;29.80;40.92
28289;BME280;15558;50.874;6.964;2022-08-01T13:41:49;101238.50;;;29.77;41.59
28289;BME280;15558;50.874;6.964;2022-08-01T13:44:15;101249.28;;;29.49;42.41